Alekseevka, Kazakhstan
Current Conditions -  °F | °C
As of 10:30 PM on Tuesday 21 Oct 2014 (Local Time) from UACC Reporting Station
Clear Clear  
Wind Chill: 26°   Ceiling: Unl
Heat Index: 32°   Visibility: 6mi
Dew Point: 27°   Wind: 7mph
Humidity: 80%   Direction: 230°SW
Pressure: 30.15"   Gusts: NA
Location:  52.01°N, 70.94°E
Report Text: UACC 211630Z 23003MPS CAVOK 00/M03 Q1021 R22/0/0070 NOSIG RMKQFE734/0979
Loading
Personal Weather Stations






























Interactive Weather Map
Tropical Storm Tracking
New forecast layout! Learn more

10-Day Weather Forecast

Advertisements
Track Severe Weather on mobile